Time;durP1;ratioP1;P1;durP2;ratioP2;P2;SDS_P1;SDS_P2;PMS_P1;PMS_P2;Temp;Humidity;BMP_temperature;BMP_pressure;BME280_temperature;BME280_humidity;BME280_pressure;Samples;Min_cycle;Max_cycle;Signal;HPM_P1;HPM_P2
2021/10/01 00:01:34;;;;;;;3.47;3.17;;;;;;;11.77;100.00;97309.53;5055118;28;20198;-76
2021/10/01 00:04:01;;;;;;;4.07;2.80;;;;;;;11.78;100.00;97311.22;5059813;28;20209;-76
2021/10/01 00:06:28;;;;;;;3.00;2.73;;;;;;;11.63;100.00;97302.91;5052272;28;20197;-76
2021/10/01 00:08:57;;;;;;;3.23;2.90;;;;;;;11.28;100.00;97300.81;5051785;28;20206;-76
2021/10/01 00:11:24;;;;;;;3.40;3.10;;;;;;;11.46;100.00;97303.59;5051685;28;20199;-76
2021/10/01 00:13:51;;;;;;;3.60;3.30;;;;;;;11.50;100.00;97305.00;5051743;28;20208;-76
2021/10/01 00:16:19;;;;;;;4.40;3.33;;;;;;;11.41;100.00;97304.03;5054697;28;20204;-75
2021/10/01 00:18:46;;;;;;;7.37;3.10;;;;;;;11.47;100.00;97307.09;5068857;28;20228;-76
2021/10/01 00:21:13;;;;;;;3.67;3.37;;;;;;;11.37;100.00;97307.09;5060991;28;20214;-75
2021/10/01 00:23:41;;;;;;;3.90;3.47;;;;;;;11.36;100.00;97316.78;5051661;28;20207;-76
2021/10/01 00:26:10;;;;;;;3.43;3.13;;;;;;;11.20;100.00;97319.13;5058269;28;20585;-76
2021/10/01 00:28:37;;;;;;;3.70;3.07;;;;;;;11.01;100.00;97322.53;5060624;28;20220;-76
2021/10/01 00:31:04;;;;;;;3.63;2.97;;;;;;;11.03;100.00;97311.88;5051885;28;20194;-75
2021/10/01 00:33:32;;;;;;;6.03;3.30;;;;;;;11.10;100.00;97305.94;5056637;28;20209;-76
2021/10/01 00:36:00;;;;;;;5.67;3.33;;;;;;;11.09;100.00;97303.47;5062901;28;20242;-76
2021/10/01 00:38:28;;;;;;;4.13;3.57;;;;;;;11.02;100.00;97305.81;5071285;28;20223;-76
2021/10/01 00:40:55;;;;;;;3.53;3.23;;;;;;;11.06;100.00;97312.44;5072006;28;20209;-76
2021/10/01 00:43:24;;;;;;;3.37;3.10;;;;;;;10.86;100.00;97306.31;5071517;28;20207;-76
2021/10/01 00:45:51;;;;;;;3.93;3.50;;;;;;;10.81;100.00;97303.25;5071609;28;20193;-76
2021/10/01 00:48:18;;;;;;;4.10;3.70;;;;;;;10.82;100.00;97311.97;5071409;28;20199;-76
2021/10/01 00:50:46;;;;;;;3.53;3.23;;;;;;;10.84;100.00;97304.78;5070024;28;20205;-76
2021/10/01 00:53:14;;;;;;;5.90;3.60;;;;;;;10.87;100.00;97301.88;5070429;28;20201;-76
2021/10/01 00:55:41;;;;;;;3.90;3.40;;;;;;;10.95;100.00;97292.34;5070416;28;20197;-76
2021/10/01 00:58:09;;;;;;;3.63;3.33;;;;;;;10.92;100.00;97291.78;5070108;28;20245;-76
2021/10/01 01:00:45;;;;;;;4.87;3.87;;;;;;;10.99;100.00;97292.91;5070433;28;20201;-76
2021/10/01 01:03:13;;;;;;;3.70;2.83;;;;;;;10.93;100.00;97298.72;5053280;28;20684;-76
2021/10/01 01:05:55;;;;;;;4.60;3.10;;;;;;;10.94;100.00;97295.97;5067067;28;20213;-76
2021/10/01 01:08:25;;;;;;;3.83;3.43;;;;;;;10.75;100.00;97295.09;5050384;28;20213;-76
2021/10/01 01:10:57;;;;;;;3.90;3.47;;;;;;;10.58;100.00;97297.38;5050111;28;20588;-76
2021/10/01 01:13:34;;;;;;;4.07;3.67;;;;;;;10.48;100.00;97288.63;5050344;28;20201;-76
2021/10/01 01:16:11;;;;;;;4.00;3.43;;;;;;;10.56;100.00;97294.03;5055700;28;20677;-76
2021/10/01 01:18:43;;;;;;;5.07;3.53;;;;;;;10.66;100.00;97296.69;5066918;28;20578;-76
2021/10/01 01:21:18;;;;;;;5.67;4.80;;;;;;;10.49;100.00;97292.91;5050010;28;20187;-76
2021/10/01 01:24:09;;;;;;;5.30;3.87;;;;;;;10.36;100.00;97292.31;5054427;28;20196;-75
2021/10/01 01:26:45;;;;;;;3.70;3.33;;;;;;;10.08;100.00;97296.41;5070079;28;20197;-76
2021/10/01 01:29:25;;;;;;;3.60;3.30;;;;;;;10.40;100.00;97285.84;5070021;28;20203;-76
2021/10/01 01:32:13;;;;;;;4.00;3.70;;;;;;;10.33;100.00;97287.34;5070061;28;20586;-75
2021/10/01 01:34:44;;;;;;;4.47;4.07;;;;;;;10.31;100.00;97297.97;5055590;28;20200;-76
2021/10/01 01:37:18;;;;;;;4.97;4.23;;;;;;;10.39;100.00;97294.66;5052120;28;20241;-75
2021/10/01 01:39:48;;;;;;;8.00;4.17;;;;;;;10.43;100.00;97294.28;5050214;28;20238;-76
2021/10/01 01:42:16;;;;;;;5.70;4.27;;;;;;;10.45;100.00;97300.22;5049531;28;20186;-76
2021/10/01 01:44:45;;;;;;;5.90;4.17;;;;;;;10.57;100.00;97302.78;5071917;28;20197;-76
2021/10/01 01:47:15;;;;;;;6.17;4.97;;;;;;;10.60;100.00;97303.34;5073266;28;20292;-76
2021/10/01 01:49:44;;;;;;;5.60;5.00;;;;;;;10.69;100.00;97309.59;5055974;28;20705;-75
2021/10/01 01:52:13;;;;;;;7.77;4.37;;;;;;;10.67;100.00;97306.28;5052910;28;20202;-76
2021/10/01 01:54:41;;;;;;;4.87;4.43;;;;;;;10.63;100.00;97310.09;5053166;28;20276;-76
2021/10/01 01:57:10;;;;;;;5.03;4.63;;;;;;;10.69;100.00;97309.59;5052971;28;20237;-76
2021/10/01 01:59:38;;;;;;;5.23;4.53;;;;;;;10.60;100.00;97313.00;5053013;28;20226;-76
2021/10/01 02:02:06;;;;;;;4.83;4.43;;;;;;;10.58;100.00;97323.66;5052912;28;20288;-76
2021/10/01 02:04:36;;;;;;;4.67;4.27;;;;;;;10.64;100.00;97319.69;5054254;28;20688;-76
2021/10/01 02:07:07;;;;;;;4.37;3.93;;;;;;;10.64;100.00;97325.75;5066417;28;20209;-76
2021/10/01 02:09:36;;;;;;;6.47;4.57;;;;;;;10.62;100.00;97316.34;5074167;28;20276;-76
2021/10/01 02:12:04;;;;;;;7.37;4.67;;;;;;;10.48;100.00;97334.13;5073978;28;20684;-76
2021/10/01 02:14:36;;;;;;;7.13;4.53;;;;;;;10.59;100.00;97337.63;5074027;28;20197;-76
2021/10/01 02:17:05;;;;;;;5.70;4.53;;;;;;;10.58;100.00;97339.44;5073670;28;20185;-76
2021/10/01 02:19:35;;;;;;;4.93;4.53;;;;;;;10.55;100.00;97339.69;5073946;28;20228;-76
2021/10/01 02:22:04;;;;;;;5.83;5.23;;;;;;;10.52;100.00;97347.00;5073725;28;20215;-76
2021/10/01 02:24:32;;;;;;;5.70;4.97;;;;;;;10.55;100.00;97342.31;5073798;28;20201;-76
2021/10/01 02:27:06;;;;;;;5.30;4.67;;;;;;;10.56;100.00;97343.16;5073480;28;20204;-76
2021/10/01 02:29:40;;;;;;;6.87;4.57;;;;;;;10.38;100.00;97343.75;5073838;28;20186;-76
2021/10/01 02:32:18;;;;;;;5.27;4.53;;;;;;;10.44;100.00;97339.78;5073950;28;20188;-76
2021/10/01 02:34:47;;;;;;;5.30;4.80;;;;;;;10.51;100.00;97340.94;5073455;28;20280;-76
2021/10/01 02:37:15;;;;;;;4.70;4.30;;;;;;;10.49;100.00;97337.59;5066143;28;20205;-75
2021/10/01 02:39:46;;;;;;;4.70;4.20;;;;;;;10.47;100.00;97331.66;5053515;28;20225;-76
2021/10/01 02:42:15;;;;;;;6.00;3.90;;;;;;;9.97;100.00;97326.22;5053412;28;20646;-76
2021/10/01 02:44:44;;;;;;;4.33;3.93;;;;;;;10.03;100.00;97317.84;5061280;28;20205;-76
2021/10/01 02:47:11;;;;;;;6.63;4.47;;;;;;;10.00;100.00;97315.47;5057973;28;20208;-76
2021/10/01 02:49:40;;;;;;;5.23;3.57;;;;;;;9.80;100.00;97313.66;5053660;28;20209;-76
2021/10/01 02:52:21;;;;;;;4.93;4.03;;;;;;;9.92;100.00;97317.91;5052941;28;20285;-76
2021/10/01 02:54:53;;;;;;;6.30;4.13;;;;;;;9.76;100.00;97313.91;5060547;28;20197;-76
2021/10/01 02:57:24;;;;;;;6.30;4.87;;;;;;;9.76;100.00;97316.56;5073193;28;20237;-76
2021/10/01 02:59:54;;;;;;;5.90;4.77;;;;;;;9.77;100.00;97315.59;5073497;28;20209;-75
2021/10/01 03:02:23;;;;;;;6.00;4.13;;;;;;;9.87;100.00;97318.31;5072848;28;20185;-76
2021/10/01 03:04:55;;;;;;;4.60;4.20;;;;;;;9.80;100.00;97322.38;5073498;28;20200;-76
2021/10/01 03:07:26;;;;;;;5.07;4.50;;;;;;;9.81;100.00;97326.69;5072774;28;20191;-76
2021/10/01 03:09:55;;;;;;;5.33;4.83;;;;;;;9.73;100.00;97334.34;5054244;28;20202;-76
2021/10/01 03:12:24;;;;;;;5.83;5.23;;;;;;;9.82;100.00;97332.78;5053029;28;20204;-76
2021/10/01 03:14:52;;;;;;;5.00;4.47;;;;;;;9.92;100.00;97345.00;5053203;28;20205;-76
2021/10/01 03:17:20;;;;;;;5.80;4.87;;;;;;;9.99;100.00;97345.31;5052637;28;20200;-76
2021/10/01 03:19:48;;;;;;;18.13;5.03;;;;;;;10.01;100.00;97356.53;5052569;28;20313;-75
2021/10/01 03:22:15;;;;;;;6.20;4.27;;;;;;;10.08;100.00;97356.84;5052886;28;20198;-76
2021/10/01 03:24:45;;;;;;;4.57;4.23;;;;;;;10.07;100.00;97357.81;5052839;28;20197;-75
2021/10/01 03:27:12;;;;;;;6.03;4.73;;;;;;;10.07;100.00;97357.81;5058924;28;20725;-76
2021/10/01 03:29:40;;;;;;;4.90;4.47;;;;;;;10.09;100.00;97363.78;5067428;28;20193;-76
2021/10/01 03:32:08;;;;;;;6.80;4.83;;;;;;;10.03;100.00;97367.72;5058904;28;20289;-76
2021/10/01 03:34:35;;;;;;;6.00;4.33;;;;;;;10.13;100.00;97366.00;5051630;28;20224;-76
2021/10/01 03:37:03;;;;;;;5.50;5.00;;;;;;;10.11;100.00;97367.91;5051252;28;20206;-75
2021/10/01 03:39:30;;;;;;;4.70;4.10;;;;;;;10.06;100.00;97371.91;5051594;28;20244;-76
2021/10/01 03:41:59;;;;;;;6.47;5.00;;;;;;;10.16;100.00;97376.25;5051135;28;20530;-76
2021/10/01 03:44:26;;;;;;;6.00;4.77;;;;;;;10.09;100.00;97371.66;5051248;28;20581;-76
2021/10/01 03:46:53;;;;;;;4.77;4.00;;;;;;;10.16;100.00;97373.63;5051005;28;20206;-76
2021/10/01 03:49:20;;;;;;;6.90;4.43;;;;;;;9.95;100.00;97378.88;5051073;28;20626;-76
2021/10/01 03:51:47;;;;;;;6.97;4.83;;;;;;;10.03;100.00;97378.25;5051072;28;20198;-77
2021/10/01 03:54:14;;;;;;;4.37;3.83;;;;;;;10.11;100.00;97382.84;5051258;28;20248;-76
2021/10/01 03:56:42;;;;;;;4.37;4.07;;;;;;;10.10;100.00;97387.28;5049577;28;20768;-75
2021/10/01 03:59:11;;;;;;;8.43;4.00;;;;;;;10.08;100.00;97386.59;5049740;28;20232;-75
2021/10/01 04:01:38;;;;;;;5.77;5.20;;;;;;;9.92;100.00;97381.75;5050602;28;20201;-75
2021/10/01 04:04:05;;;;;;;4.93;4.30;;;;;;;10.04;100.00;97376.44;5050870;28;20670;-75
2021/10/01 04:06:33;;;;;;;4.77;3.63;;;;;;;10.02;100.00;97389.72;5050370;28;20206;-75
2021/10/01 04:09:00;;;;;;;3.90;3.60;;;;;;;10.04;100.00;97386.94;5050147;28;20202;-75
2021/10/01 04:11:27;;;;;;;6.23;4.10;;;;;;;10.04;100.00;97382.53;5050611;28;20194;-75
2021/10/01 04:13:54;;;;;;;5.17;4.30;;;;;;;10.10;100.00;97382.03;5050918;28;20235;-75
2021/10/01 04:16:24;;;;;;;7.53;4.57;;;;;;;10.04;100.00;97390.41;5050924;28;20277;-76
2021/10/01 04:18:51;;;;;;;4.30;3.90;;;;;;;9.96;100.00;97395.47;5051439;28;20237;-75
2021/10/01 04:21:18;;;;;;;5.60;4.70;;;;;;;9.98;100.00;97396.19;5051760;28;20293;-75
2021/10/01 04:23:45;;;;;;;4.40;3.97;;;;;;;9.99;100.00;97389.97;5051518;28;20201;-76
2021/10/01 04:26:12;;;;;;;6.10;4.67;;;;;;;9.92;100.00;97392.25;5051493;28;20237;-75
2021/10/01 04:28:40;;;;;;;5.47;4.03;;;;;;;10.02;100.00;97381.84;5051794;28;20202;-75
2021/10/01 04:31:07;;;;;;;6.70;3.70;;;;;;;10.08;100.00;97383.97;5051758;28;20193;-76
2021/10/01 04:33:36;;;;;;;4.30;3.90;;;;;;;10.13;100.00;97387.03;5050790;28;20194;-76
2021/10/01 04:36:04;;;;;;;8.83;4.43;;;;;;;9.99;100.00;97393.44;5050534;28;20660;-76
2021/10/01 04:38:32;;;;;;;4.17;3.77;;;;;;;9.86;100.00;97390.16;5051778;28;20204;-75
2021/10/01 04:41:00;;;;;;;3.70;3.40;;;;;;;9.76;100.00;97397.94;5051669;28;20225;-75
2021/10/01 04:43:27;;;;;;;5.07;4.10;;;;;;;9.79;100.00;97399.47;5051776;28;20209;-75
2021/10/01 04:45:54;;;;;;;4.33;3.97;;;;;;;9.85;100.00;97395.53;5051610;28;20198;-76
2021/10/01 04:48:21;;;;;;;4.87;3.40;;;;;;;9.82;100.00;97398.41;5051765;28;20565;-75
2021/10/01 04:50:50;;;;;;;7.47;4.07;;;;;;;9.92;100.00;97401.94;5051633;28;20335;-76
2021/10/01 04:53:17;;;;;;;5.43;3.77;;;;;;;9.96;100.00;97404.19;5051400;28;20198;-75
2021/10/01 04:55:46;;;;;;;7.43;4.57;;;;;;;9.91;100.00;97408.16;5051423;28;20213;-75
2021/10/01 04:58:14;;;;;;;4.00;3.60;;;;;;;10.00;100.00;97397.72;5051124;28;20241;-75
2021/10/01 05:00:42;;;;;;;5.27;4.27;;;;;;;10.08;100.00;97401.50;5051084;28;20222;-76
2021/10/01 05:03:09;;;;;;;8.00;3.83;;;;;;;10.11;100.00;97398.59;5051078;28;20690;-76
2021/10/01 05:05:36;;;;;;;4.40;4.00;;;;;;;10.17;100.00;97400.72;5051415;28;20201;-76
2021/10/01 05:08:05;;;;;;;3.90;3.43;;;;;;;10.12;100.00;97409.00;5051258;28;20216;-76
2021/10/01 05:10:32;;;;;;;4.63;3.67;;;;;;;10.13;100.00;97402.78;5051182;28;20685;-76
2021/10/01 05:13:00;;;;;;;7.00;4.40;;;;;;;10.21;100.00;97400.34;5051209;28;20574;-76
2021/10/01 05:15:27;;;;;;;4.73;3.40;;;;;;;10.20;100.00;97401.31;5051372;28;20660;-75
2021/10/01 05:17:57;;;;;;;4.23;3.83;;;;;;;10.07;100.00;97410.34;5051255;28;20208;-76
2021/10/01 05:20:25;;;;;;;9.83;4.00;;;;;;;10.22;100.00;97406.44;5054107;28;20312;-76
2021/10/01 05:22:52;;;;;;;5.13;4.10;;;;;;;10.24;100.00;97407.97;5054905;28;20293;-75
2021/10/01 05:25:20;;;;;;;7.93;4.50;;;;;;;10.11;100.00;97415.19;5055348;28;20588;-76
2021/10/01 05:27:48;;;;;;;5.27;3.50;;;;;;;10.13;100.00;97407.22;5054605;28;20208;-76
2021/10/01 05:30:15;;;;;;;3.90;3.60;;;;;;;10.17;100.00;97406.81;5054974;28;20198;-75
2021/10/01 05:32:42;;;;;;;5.00;4.00;;;;;;;10.17;100.00;97412.06;5054810;28;20208;-76
2021/10/01 05:35:10;;;;;;;4.40;3.60;;;;;;;10.18;100.00;97402.38;5055225;28;20220;-75
2021/10/01 05:37:37;;;;;;;3.37;3.10;;;;;;;10.15;100.00;97407.94;5054965;28;20300;-76
2021/10/01 05:40:06;;;;;;;5.60;3.60;;;;;;;10.12;100.00;97411.63;5054747;28;20229;-76
2021/10/01 05:42:35;;;;;;;6.07;4.07;;;;;;;10.15;100.00;97410.56;5054590;28;20288;-75
2021/10/01 05:45:03;;;;;;;4.20;3.77;;;;;;;10.21;100.00;97402.13;5054677;28;20626;-76
2021/10/01 05:47:30;;;;;;;4.27;3.47;;;;;;;10.40;100.00;97407.56;5054541;28;20204;-75
2021/10/01 05:50:01;;;;;;;5.63;3.70;;;;;;;10.34;100.00;97412.50;5054828;28;20239;-76
2021/10/01 05:52:39;;;;;;;3.87;3.50;;;;;;;10.37;100.00;97417.50;5054483;28;20189;-76
2021/10/01 05:55:07;;;;;;;4.07;3.70;;;;;;;10.39;100.00;97418.19;5054525;28;20190;-76
2021/10/01 05:57:36;;;;;;;3.60;3.03;;;;;;;10.42;100.00;97412.66;5054090;28;20284;-75
2021/10/01 06:00:05;;;;;;;4.23;3.70;;;;;;;10.35;100.00;97419.41;5054094;28;20225;-76
2021/10/01 06:02:33;;;;;;;5.63;3.90;;;;;;;10.40;100.00;97419.88;5054517;28;20198;-76
2021/10/01 06:05:00;;;;;;;4.27;3.87;;;;;;;10.55;100.00;97428.25;5054635;28;20228;-75
2021/10/01 06:07:27;;;;;;;3.87;3.57;;;;;;;10.53;100.00;97433.66;5053961;28;20204;-75
2021/10/01 06:09:54;;;;;;;4.23;3.53;;;;;;;10.57;100.00;97431.59;5054262;28;20202;-76
2021/10/01 06:12:21;;;;;;;3.63;3.33;;;;;;;10.65;100.00;97437.84;5054050;28;20205;-76
2021/10/01 06:14:50;;;;;;;3.80;3.40;;;;;;;10.68;100.00;97432.31;5054462;28;20198;-75
2021/10/01 06:17:17;;;;;;;9.00;3.83;;;;;;;10.83;100.00;97434.59;5051948;28;20206;-76
2021/10/01 06:19:45;;;;;;;5.80;3.63;;;;;;;10.82;100.00;97438.22;5052892;28;20614;-76
2021/10/01 06:22:13;;;;;;;5.53;5.13;;;;;;;11.00;100.00;97438.41;5053845;28;20244;-76
2021/10/01 06:24:41;;;;;;;3.43;3.13;;;;;;;11.12;100.00;97440.00;5053860;28;20202;-76
2021/10/01 06:27:09;;;;;;;4.50;3.20;;;;;;;11.15;100.00;97442.34;5053634;28;20194;-75
2021/10/01 06:29:37;;;;;;;3.80;3.07;;;;;;;11.23;100.00;97446.97;5053680;28;20280;-76
2021/10/01 06:32:07;;;;;;;3.30;3.10;;;;;;;11.30;100.00;97450.72;5053945;28;20198;-76
2021/10/01 06:34:34;;;;;;;4.97;4.27;;;;;;;11.38;100.00;97443.81;5053734;28;20202;-76
2021/10/01 06:37:01;;;;;;;4.73;3.00;;;;;;;11.49;100.00;97450.75;5053525;28;20194;-76
2021/10/01 06:39:28;;;;;;;4.63;3.33;;;;;;;11.59;100.00;97454.25;5053382;28;20293;-76
2021/10/01 06:41:56;;;;;;;4.63;3.00;;;;;;;11.70;100.00;97457.72;5053699;28;20229;-76
2021/10/01 06:44:25;;;;;;;3.83;3.53;;;;;;;11.74;100.00;97465.25;5053861;28;20228;-76
2021/10/01 06:46:55;;;;;;;3.77;3.13;;;;;;;11.75;100.00;97464.25;5053366;28;20201;-76
2021/10/01 06:49:35;;;;;;;3.67;3.37;;;;;;;12.05;100.00;97467.75;5053592;28;20198;-76
2021/10/01 07:22:50;;;;;;;4.93;2.93;;;;;;;13.19;100.00;97487.97;5052830;28;20193;-76
2021/10/01 07:36:45;;;;;;;5.13;2.97;;;;;;;14.24;100.00;97505.22;5052736;28;20227;-76
2021/10/01 07:45:06;;;;;;;3.87;2.93;;;;;;;13.98;100.00;97500.63;5052615;28;20190;-76
2021/10/01 08:20:40;;;;;;;2.70;2.50;;;;;;;16.25;100.00;97522.56;5011642;28;20257;-76
2021/10/01 08:23:08;;;;;;;4.50;2.77;;;;;;;16.23;100.00;97521.88;5051723;28;20193;-76
2021/10/01 08:25:35;;;;;;;2.90;2.30;;;;;;;16.04;100.00;97517.72;5052180;28;20286;-76
2021/10/01 08:28:04;;;;;;;6.67;4.53;;;;;;;16.38;100.00;97520.28;5051432;28;20211;-76
2021/10/01 08:30:31;;;;;;;7.73;4.97;;;;;;;16.67;100.00;97516.28;5051788;28;20671;-76
2021/10/01 08:32:59;;;;;;;2.80;2.60;;;;;;;17.33;100.00;97531.16;5051588;28;20232;-76
2021/10/01 08:35:26;;;;;;;6.57;2.70;;;;;;;17.66;100.00;97524.91;5052042;28;20204;-76
2021/10/01 08:37:58;;;;;;;6.10;2.77;;;;;;;17.67;100.00;97531.91;5051328;28;20198;-77
2021/10/01 08:40:26;;;;;;;3.03;2.20;;;;;;;18.21;100.00;97519.50;5051673;28;20303;-76
2021/10/01 08:42:55;;;;;;;4.73;3.43;;;;;;;18.68;100.00;97518.50;5051828;28;20201;-76
2021/10/01 08:45:26;;;;;;;4.87;3.43;;;;;;;18.86;100.00;97530.69;5051644;28;20292;-76
2021/10/01 08:47:57;;;;;;;3.77;2.40;;;;;;;19.15;100.00;97533.41;5051336;28;20186;-77
2021/10/01 08:50:25;;;;;;;4.53;3.17;;;;;;;18.82;100.00;97524.91;5051694;28;20670;-77
2021/10/01 08:52:56;;;;;;;2.53;2.20;;;;;;;18.94;100.00;97519.97;5052218;28;20204;-76
2021/10/01 08:55:23;;;;;;;4.50;2.77;;;;;;;18.72;100.00;97511.84;5055730;28;20190;-76
2021/10/01 08:57:50;;;;;;;3.00;2.50;;;;;;;17.54;100.00;97521.81;5055028;28;20230;-77
2021/10/01 09:00:20;;;;;;;4.37;2.67;;;;;;;16.71;100.00;97514.97;5055747;28;20211;-76
2021/10/01 09:02:48;;;;;;;4.80;2.70;;;;;;;16.04;100.00;97511.59;5055359;28;20194;-76
2021/10/01 09:05:16;;;;;;;7.03;3.03;;;;;;;15.99;100.00;97503.28;5055481;28;20216;-76
2021/10/01 09:07:43;;;;;;;4.60;2.57;;;;;;;16.65;100.00;97511.13;5054985;28;20205;-77
2021/10/01 09:10:12;;;;;;;3.30;2.90;;;;;;;17.25;100.00;97503.78;5055383;28;20212;-76
2021/10/01 09:12:40;;;;;;;6.67;3.30;;;;;;;17.83;100.00;97516.72;5055490;28;20224;-77
2021/10/01 09:15:09;;;;;;;3.57;2.30;;;;;;;18.52;100.00;97510.63;5055397;28;20581;-77
2021/10/01 09:17:36;;;;;;;3.33;2.97;;;;;;;17.75;100.00;97511.41;5055357;28;20222;-77
2021/10/01 09:20:08;;;;;;;4.03;3.20;;;;;;;17.04;100.00;97512.28;5055210;28;20197;-76
2021/10/01 09:22:38;;;;;;;5.27;2.53;;;;;;;17.64;100.00;97509.13;5054987;28;20204;-77
2021/10/01 09:25:11;;;;;;;5.07;2.67;;;;;;;17.99;100.00;97514.97;5054971;28;20647;-77
2021/10/01 09:27:40;;;;;;;5.63;2.67;;;;;;;17.88;100.00;97512.72;5054847;28;20244;-77
2021/10/01 09:30:09;;;;;;;3.13;2.70;;;;;;;17.58;100.00;97507.97;5055031;28;20200;-77
2021/10/01 09:32:36;;;;;;;4.57;2.43;;;;;;;18.06;100.00;97510.63;5054505;28;20323;-77
2021/10/01 09:35:13;;;;;;;5.13;3.20;;;;;;;19.13;100.00;97516.78;5054971;28;20197;-77
2021/10/01 09:37:41;;;;;;;4.60;3.30;;;;;;;18.54;100.00;97525.44;5054734;28;20186;-76
2021/10/01 09:40:10;;;;;;;3.77;2.37;;;;;;;18.18;100.00;97522.50;5054824;28;20572;-77
2021/10/01 09:42:43;;;;;;;4.83;2.60;;;;;;;17.62;100.00;97516.44;5054830;28;20230;-77
2021/10/01 09:45:12;;;;;;;3.00;2.20;;;;;;;17.17;100.00;97520.56;5054870;28;20634;-77
2021/10/01 09:47:44;;;;;;;4.00;2.17;;;;;;;17.04;100.00;97514.94;5054783;28;20193;-77
2021/10/01 09:50:15;;;;;;;8.00;2.50;;;;;;;17.13;100.00;97513.94;5055010;28;20269;-77
2021/10/01 09:52:45;;;;;;;4.47;2.57;;;;;;;16.82;100.00;97521.78;5054430;28;20182;-77
2021/10/01 09:55:13;;;;;;;3.30;2.40;;;;;;;16.69;100.00;97508.16;5054604;28;20197;-77
2021/10/01 09:58:00;;;;;;;3.47;2.30;;;;;;;16.43;100.00;97510.97;5054123;28;20243;-76
2021/10/01 10:00:33;;;;;;;4.80;2.60;;;;;;;16.22;100.00;97509.63;5054460;28;20229;-77
2021/10/01 10:03:01;;;;;;;3.23;2.30;;;;;;;16.93;100.00;97510.81;5054378;28;20280;-77
2021/10/01 10:05:57;;;;;;;2.93;2.07;;;;;;;16.91;100.00;97506.69;5053513;28;20573;-77
2021/10/01 10:08:27;;;;;;;3.57;2.10;;;;;;;16.11;100.00;97508.13;5054228;28;20195;-77
2021/10/01 10:10:56;;;;;;;3.03;2.20;;;;;;;16.46;100.00;97514.13;5054327;28;20266;-77
2021/10/01 10:13:44;;;;;;;6.63;2.47;;;;;;;16.28;100.00;97513.44;5053787;28;20194;-77
2021/10/01 10:16:14;;;;;;;3.80;2.40;;;;;;;16.64;100.00;97503.34;5054158;28;20649;-77
2021/10/01 10:18:42;;;;;;;2.20;1.97;;;;;;;17.50;100.00;97501.88;5053955;28;20687;-76
2021/10/01 10:21:11;;;;;;;5.53;2.63;;;;;;;17.60;100.00;97505.16;5053965;28;20261;-77
2021/10/01 10:23:39;;;;;;;5.73;2.63;;;;;;;17.70;100.00;97505.78;5053822;28;20205;-77
2021/10/01 10:26:06;;;;;;;3.03;2.50;;;;;;;16.77;100.00;97511.69;5053838;28;20240;-77
2021/10/01 10:28:34;;;;;;;3.83;2.27;;;;;;;16.47;100.00;97507.00;5054052;28;20201;-77
2021/10/01 10:31:02;;;;;;;3.97;2.67;;;;;;;16.90;100.00;97502.34;5053925;28;20197;-77
2021/10/01 10:33:44;;;;;;;2.80;2.57;;;;;;;16.99;100.00;97515.47;5054020;28;20196;-77
2021/10/01 10:36:35;;;;;;;3.00;2.70;;;;;;;16.97;100.00;97511.31;5053862;28;20200;-77
2021/10/01 10:39:35;;;;;;;7.43;2.93;;;;;;;16.93;100.00;97515.31;5053946;28;20201;-77
2021/10/01 10:42:09;;;;;;;3.50;2.40;;;;;;;17.08;100.00;97511.81;5053489;28;20215;-77
2021/10/01 10:44:52;;;;;;;3.00;2.37;;;;;;;16.90;100.00;97507.66;5053739;28;20275;-76
2021/10/01 10:47:44;;;;;;;3.03;2.73;;;;;;;17.65;100.00;97507.31;5053440;28;20188;-77
2021/10/01 10:50:37;;;;;;;3.23;2.20;;;;;;;17.85;100.00;97502.44;5046658;28;20289;-77
2021/10/01 10:53:21;;;;;;;4.17;2.67;;;;;;;16.68;100.00;97499.38;5053676;28;20196;-77
2021/10/01 10:56:07;;;;;;;6.13;2.47;;;;;;;16.60;100.00;97504.69;5053244;28;20189;-77
2021/10/01 10:58:50;;;;;;;2.40;2.20;;;;;;;17.10;100.00;97493.84;5053061;28;20236;-77
2021/10/01 11:01:29;;;;;;;2.80;2.27;;;;;;;17.47;100.00;97495.06;5053275;28;20209;-77
2021/10/01 11:04:39;;;;;;;5.20;2.40;;;;;;;17.03;100.00;97489.38;5052923;28;20192;-76
2021/10/01 11:12:27;;;;;;;3.70;2.23;;;;;;;16.68;100.00;97482.59;5837231;22;20228;-77
2021/10/01 11:15:19;;;;;;;2.57;2.03;;;;;;;16.84;100.00;97480.81;5062244;28;20205;-77
2021/10/01 11:18:12;;;;;;;5.97;2.50;;;;;;;18.07;100.00;97477.69;5052786;28;20197;-77
2021/10/01 11:20:40;;;;;;;2.50;2.30;;;;;;;18.54;100.00;97476.69;5052741;28;20586;-77
2021/10/01 11:23:18;;;;;;;2.30;1.90;;;;;;;18.79;100.00;97479.16;5052600;28;20225;-77
2021/10/01 11:25:46;;;;;;;4.07;2.77;;;;;;;17.81;100.00;97476.19;5052939;28;20186;-77
2021/10/01 11:28:15;;;;;;;4.17;2.17;;;;;;;17.73;100.00;97476.16;5052637;28;20289;-77
2021/10/01 11:30:51;;;;;;;4.17;2.60;;;;;;;17.24;100.00;97468.41;5052767;28;20300;-77
2021/10/01 11:33:19;;;;;;;2.27;2.13;;;;;;;17.27;100.00;97470.72;5052307;28;20582;-77
2021/10/01 11:35:53;;;;;;;3.13;1.97;;;;;;;17.53;100.00;97472.31;5052708;28;20202;-77
2021/10/01 11:38:27;;;;;;;3.03;2.20;;;;;;;17.99;100.00;97467.94;5052818;28;20548;-77
2021/10/01 11:41:09;;;;;;;3.13;2.47;;;;;;;16.92;100.00;97469.34;5052363;28;20186;-77
2021/10/01 11:43:48;;;;;;;3.13;2.00;;;;;;;16.56;100.00;97460.91;5052397;28;20185;-77
2021/10/01 11:46:26;;;;;;;3.80;2.60;;;;;;;16.83;100.00;97463.22;5052888;28;20200;-77
2021/10/01 11:48:53;;;;;;;7.93;2.60;;;;;;;16.81;100.00;97467.03;5052363;28;20204;-77
2021/10/01 11:51:21;;;;;;;3.53;2.37;;;;;;;17.22;100.00;97464.28;5052692;28;20194;-77
2021/10/01 11:53:48;;;;;;;4.07;2.17;;;;;;;17.17;100.00;97458.63;5052249;28;20201;-77
2021/10/01 11:56:15;;;;;;;4.53;2.30;;;;;;;17.91;100.00;97460.00;5052300;28;20742;-77
2021/10/01 11:58:43;;;;;;;4.33;2.03;;;;;;;18.36;100.00;97455.69;5051958;28;20194;-77
2021/10/01 12:01:14;;;;;;;4.10;2.90;;;;;;;18.59;100.00;97455.66;5052415;28;20672;-77
2021/10/01 12:03:49;;;;;;;4.60;2.50;;;;;;;19.20;100.00;97444.94;5052081;28;20190;-77
2021/10/01 12:06:21;;;;;;;5.40;2.10;;;;;;;18.88;100.00;97452.28;5051916;28;20203;-77
2021/10/01 12:08:58;;;;;;;6.90;3.27;;;;;;;18.22;100.00;97451.97;5052321;28;20186;-77
2021/10/01 12:11:27;;;;;;;3.10;2.57;;;;;;;17.79;100.00;97451.59;5052460;28;20630;-77
2021/10/01 12:13:54;;;;;;;2.70;2.20;;;;;;;17.64;100.00;97442.66;5051468;28;20268;-77
2021/10/01 12:16:25;;;;;;;3.50;2.70;;;;;;;17.58;100.00;97451.34;5052253;28;20583;-77
2021/10/01 12:18:58;;;;;;;3.30;3.00;;;;;;;17.99;100.00;97446.66;5052201;28;20259;-77
2021/10/01 12:21:28;;;;;;;3.37;2.77;;;;;;;18.35;100.00;97458.53;5051900;28;20246;-77
2021/10/01 12:23:59;;;;;;;2.30;2.10;;;;;;;18.42;100.00;97451.47;5051501;28;20255;-77
2021/10/01 12:26:31;;;;;;;3.43;2.83;;;;;;;18.53;100.00;97462.53;5052248;28;20243;-77
2021/10/01 12:29:05;;;;;;;3.63;2.57;;;;;;;18.51;100.00;97461.06;5051281;28;20205;-77
2021/10/01 12:31:40;;;;;;;4.70;2.77;;;;;;;19.04;100.00;97453.91;5051860;28;20281;-78
2021/10/01 12:34:11;;;;;;;4.17;2.33;;;;;;;19.22;100.00;97451.75;5051969;28;20572;-78
2021/10/01 12:36:39;;;;;;;7.63;2.80;;;;;;;19.09;100.00;97464.06;5051802;28;20570;-78
2021/10/01 12:39:06;;;;;;;4.13;2.37;;;;;;;18.96;100.00;97452.16;5051599;28;20692;-78
2021/10/01 12:41:33;;;;;;;6.47;2.20;;;;;;;19.21;100.00;97458.06;5051486;28;20261;-78
2021/10/01 12:44:03;;;;;;;4.63;2.60;;;;;;;19.12;100.00;97461.84;5051708;28;20229;-77
2021/10/01 12:46:41;;;;;;;3.40;2.43;;;;;;;19.07;100.00;97461.56;5051732;28;20204;-78
2021/10/01 12:49:14;;;;;;;8.40;2.80;;;;;;;19.42;100.00;97451.16;5051478;28;20185;-78
2021/10/01 12:51:41;;;;;;;3.67;3.07;;;;;;;19.39;100.00;97443.53;5051468;28;20204;-78
2021/10/01 12:54:33;;;;;;;4.80;2.70;;;;;;;19.49;100.00;97438.72;5051494;28;20208;-78
2021/10/01 12:57:32;;;;;;;4.57;2.97;;;;;;;19.16;100.00;97447.13;5032301;28;20206;-77
2021/10/01 13:00:07;;;;;;;3.77;2.40;;;;;;;19.13;100.00;97438.69;5051838;28;20696;-78
2021/10/01 13:02:41;;;;;;;3.40;2.40;;;;;;;19.37;100.00;97446.38;5051071;28;20205;-78
2021/10/01 13:05:10;;;;;;;2.73;2.27;;;;;;;18.83;100.00;97445.81;5051583;28;20193;-78
2021/10/01 13:07:40;;;;;;;2.33;2.10;;;;;;;19.00;100.00;97447.31;5051383;28;20202;-77
2021/10/01 13:10:27;;;;;;;4.17;2.37;;;;;;;18.94;100.00;97453.34;5051525;28;20642;-78